»·PEaware :: N383PW KVCV-KSEE

N383PW :: KVCV-KSEE

FLIGHT INFORMATION

Flight Status: Arrived
Operator: Privately registered:
United States
More flights under this callsign
Pilot: Anonymous 31001 (31001)
Aircraft: CIRRUS SR-22
(SR22)
More flights by this aircraft type
Origin: KVCV Socal Logistics
United States
Destination: KSEE Gillespie
United States
More flights between these airports :: More routes between these airports
Route: HDF JLI
File this flight plan on PilotEdge
Remarks:
Altitude:
(Current/Filed)
9,500ft
Speed:
(Current/Filed)
170kts
Departed: 12-Aug-20 06:03 PM
Arrived: 12-Aug-20 06:50 PM
Distance/Time
Traveled:
108nm/0:47
Distance/Time
To Go:
Arrived

Flight Plot

Page will automatically refresh every two minutes.

Flight plan parsing failed; only flown route is shown


Map Options




Map Legend


Flown Route
Filed Route
Departure Airport
Arrival Airport
Navaid (VOR, NDB)
Fix

Horizontal Profiles

Position Reports

Time Latitude Longitude Heading Altitude Ground
Speed
12-Aug-20 17:37 34.588333 -117.376341 313 2875ft 0kts
12-Aug-20 17:38 34.588333 -117.376341 313 2875ft 0kts
12-Aug-20 17:39 34.588333 -117.376341 313 2875ft 0kts
12-Aug-20 17:40 34.588333 -117.376341 313 2875ft 0kts
12-Aug-20 17:41 34.588333 -117.376341 313 2875ft 0kts
12-Aug-20 17:42 34.588333 -117.376341 313 2875ft 0kts
12-Aug-20 17:43 34.588333 -117.376341 313 2875ft 0kts
12-Aug-20 17:44 34.588333 -117.376341 313 2875ft 0kts
12-Aug-20 17:45 34.588333 -117.376341 313 2875ft 0kts
12-Aug-20 17:46 34.588333 -117.376341 313 2875ft 0kts
12-Aug-20 17:47 34.588333 -117.376341 313 2875ft 0kts
12-Aug-20 17:48 34.588333 -117.376341 313 2875ft 0kts
12-Aug-20 17:49 34.588333 -117.376341 313 2875ft 0kts
12-Aug-20 17:50 34.588333 -117.376341 313 2875ft 0kts
12-Aug-20 17:51 34.588344 -117.376355 313 2875ft 1kts
12-Aug-20 17:52 34.590672 -117.374989 45 2869ft 15kts
12-Aug-20 17:52 34.592925 -117.372313 41 2864ft 13kts
12-Aug-20 17:54 34.593025 -117.368498 88 2863ft 17kts
12-Aug-20 17:54 34.596775 -117.367152 11 2849ft 20kts
12-Aug-20 17:55 34.599040 -117.366525 17 2848ft 0kts
12-Aug-20 17:57 34.599040 -117.366525 17 2848ft 0kts
12-Aug-20 17:57 34.599040 -117.366525 17 2848ft 0kts
12-Aug-20 17:58 34.599040 -117.366525 17 2848ft 0kts
12-Aug-20 17:59 34.599040 -117.366525 17 2848ft 0kts
12-Aug-20 18:00 34.599040 -117.366525 17 2848ft 0kts
12-Aug-20 18:01 34.600136 -117.366942 228 2848ft 9kts
12-Aug-20 18:02 34.585735 -117.385661 222 3821ft 102kts
12-Aug-20 18:03 34.564388 -117.416235 223 5051ft 125kts
12-Aug-20 18:04 34.535353 -117.408876 155 6296ft 119kts
12-Aug-20 18:05 34.504196 -117.394012 162 7408ft 122kts
12-Aug-20 18:06 34.471225 -117.381959 165 8421ft 125kts
12-Aug-20 18:07 34.437084 -117.371106 167 9322ft 128kts
12-Aug-20 18:08 34.398293 -117.359637 167 9489ft 157kts
12-Aug-20 18:09 34.354124 -117.346945 168 9461ft 166kts
12-Aug-20 18:10 34.308588 -117.334054 168 9437ft 169kts
12-Aug-20 18:11 34.262473 -117.320984 169 9418ft 170kts
12-Aug-20 18:12 34.216261 -117.308021 169 9504ft 167kts
12-Aug-20 18:13 34.169774 -117.294980 169 9508ft 170kts
12-Aug-20 18:14 34.122860 -117.281823 169 9508ft 171kts
12-Aug-20 18:15 34.076324 -117.268792 168 9508ft 171kts
12-Aug-20 18:16 34.029655 -117.255744 169 9507ft 171kts
12-Aug-20 18:17 33.983207 -117.242768 169 9507ft 171kts
12-Aug-20 18:18 33.936309 -117.229684 169 9508ft 171kts
12-Aug-20 18:19 33.889703 -117.216735 169 9513ft 171kts
12-Aug-20 18:20 33.843162 -117.203841 169 9480ft 171kts
12-Aug-20 18:21 33.796849 -117.190970 169 9483ft 170kts
12-Aug-20 18:22 33.750951 -117.178181 169 9483ft 169kts
12-Aug-20 18:23 33.712495 -117.146340 141 9483ft 173kts
12-Aug-20 18:24 33.676000 -117.108812 143 9480ft 172kts
12-Aug-20 18:25 33.639131 -117.072027 143 9482ft 172kts
12-Aug-20 18:26 33.602027 -117.035441 144 9480ft 172kts
12-Aug-20 18:27 33.564751 -116.998873 143 9479ft 173kts
12-Aug-20 18:28 33.527335 -116.962194 143 9478ft 174kts
12-Aug-20 18:29 33.489838 -116.925471 143 9480ft 174kts
12-Aug-20 18:30 33.452080 -116.888588 143 9482ft 174kts
12-Aug-20 18:31 33.414347 -116.851751 143 9482ft 175kts
12-Aug-20 18:32 33.376202 -116.814552 142 9458ft 176kts
12-Aug-20 18:33 33.337913 -116.777262 142 9462ft 176kts
12-Aug-20 18:34 33.299879 -116.740245 142 9476ft 176kts
12-Aug-20 18:35 33.261846 -116.703269 142 9491ft 177kts
12-Aug-20 18:36 33.223533 -116.666076 142 9491ft 177kts
12-Aug-20 18:37 33.185195 -116.628904 142 9488ft 177kts
12-Aug-20 18:38 33.143925 -116.611554 219 9486ft 170kts
12-Aug-20 18:39 33.100170 -116.633690 204 9489ft 172kts
12-Aug-20 18:40 33.065666 -116.674179 226 9192ft 184kts
12-Aug-20 18:41 33.029427 -116.719594 228 8510ft 191kts
12-Aug-20 18:42 32.992308 -116.766107 227 7615ft 196kts
12-Aug-20 18:43 32.956016 -116.811295 227 6774ft 187kts
12-Aug-20 18:44 32.923343 -116.851903 228 5233ft 159kts
12-Aug-20 18:45 32.894885 -116.887242 228 3701ft 136kts
12-Aug-20 18:46 32.866373 -116.913548 196 2165ft 125kts
12-Aug-20 18:47 32.835801 -116.924027 217 1564ft 119kts
12-Aug-20 18:48 32.823192 -116.953772 281 863ft 84kts
12-Aug-20 18:49 32.826366 -116.971810 175 372ft 9kts
12-Aug-20 18:50 32.826180 -116.971808 184 372ft 0kts
12-Aug-20 18:51 32.826180 -116.971808 184 372ft 0kts
12-Aug-20 18:52 32.826180 -116.971808 184 372ft 0kts
12-Aug-20 18:53 32.825801 -116.971816 182 372ft 5kts
12-Aug-20 18:54 32.823471 -116.971629 74 372ft 0kts
12-Aug-20 18:55 32.823470 -116.971629 74 372ft 0kts

Navigation Log

Ident Type
Flight plan parsing failed, navigation log unavailable